Kissimmee, Florida
Current Conditions -  °F | °C
As of 9:50 PM on Monday 20 Oct 2014 (Local Time) from KISM Reporting Station
Few Clouds Few Clouds  
Wind Chill: 75°   Ceiling: Unl
Heat Index: 75°   Visibility: 10mi
Dew Point: 68°   Wind: 5mph
Humidity: 78%   Direction: 120°ESE
Pressure: 29.99"   Gusts: NA
Location:  28.29°N, 81.41°W
Report Text: KISM 210150Z 12004KT 10SM FEW055 24/20 A2999 RMK LAST
Loading
Personal Weather Stations






























Interactive Weather Map New forecast layout! Learn more

10-Day Weather Forecast

Advertisements
Track Severe Weather on mobile